< < Back
Terminal Aerodrome Forecast


Current Version              Previous Versions:   1  2  3  4  5  6  7  8  9  

Terminal Aerodrome Forecast

772
FTUS42 KJAX 260405 AAA
TAFGNV
TAF AMD
KGNV 260405Z 2604/2624 02002KT P6SM SCT070
     FM261400 06008KT P6SM SCT030 SCT250
     FM261700 07010G18KT P6SM SCT040 SCT250=

Latest METAR

838
SAUS70 KWBC 260000 RRX
MTRGNV
METAR KGNV 262253Z 06011KT 10SM BKN090 31/21 A2998 RMK AO2 SLP147
T03110206


USA.gov is the U.S. government's official web portal to all federal, state and local government web resources and services.